Time;durP1;ratioP1;P1;durP2;ratioP2;P2;SDS_P1;SDS_P2;PMS_P1;PMS_P2;Temp;Humidity;BMP_temperature;BMP_pressure;BME280_temperature;BME280_humidity;BME280_pressure;Samples;Min_cycle;Max_cycle;Signal;HPM_P1;HPM_P2
2022/08/24 00:01:06;;;;;;;4.50;3.80;;;;;;;16.89;100.00;99956.31;5000729;28;20038;-88
2022/08/24 00:03:36;;;;;;;5.22;3.90;;;;;;;16.89;100.00;99965.50;5012807;28;20077;-87
2022/08/24 00:06:03;;;;;;;5.22;3.80;;;;;;;16.87;100.00;99973.59;4998881;28;20046;-87
2022/08/24 00:08:29;;;;;;;4.32;3.83;;;;;;;16.89;100.00;99965.50;5000361;28;20455;-87
2022/08/24 00:10:55;;;;;;;5.28;3.90;;;;;;;16.89;100.00;99976.72;5014010;28;20044;-87
2022/08/24 00:13:21;;;;;;;5.65;4.05;;;;;;;16.86;100.00;99971.31;5013222;28;20128;-87
2022/08/24 00:15:47;;;;;;;4.90;4.07;;;;;;;16.85;100.00;99976.13;5016132;28;20469;-88
2022/08/24 00:18:13;;;;;;;5.90;4.22;;;;;;;16.83;100.00;99972.25;4993144;28;20041;-87
2022/08/24 00:20:39;;;;;;;5.15;3.80;;;;;;;16.81;100.00;99971.97;4993139;28;20029;-88
2022/08/24 00:23:05;;;;;;;4.30;3.67;;;;;;;16.78;100.00;99977.25;5014395;28;20041;-88
2022/08/24 00:25:32;;;;;;;4.72;3.90;;;;;;;16.76;100.00;99985.38;5014959;28;20488;-87
2022/08/24 00:27:57;;;;;;;4.60;3.72;;;;;;;16.71;100.00;99969.25;5012785;28;20402;-87
2022/08/24 00:30:23;;;;;;;4.65;3.83;;;;;;;16.73;100.00;99979.97;5011574;28;20037;-87
2022/08/24 00:32:49;;;;;;;6.45;4.05;;;;;;;16.68;100.00;99978.63;5006101;28;20050;-87
2022/08/24 00:35:17;;;;;;;4.88;3.55;;;;;;;16.67;100.00;99970.69;4993217;28;20091;-87
2022/08/24 00:37:43;;;;;;;4.82;4.00;;;;;;;16.68;100.00;99973.00;4977330;28;20041;-87
2022/08/24 00:40:25;;;;;;;5.60;3.95;;;;;;;16.65;100.00;99968.38;4992559;28;20042;-88
2022/08/24 00:42:52;;;;;;;5.93;4.30;;;;;;;16.64;100.00;99968.84;4977091;28;20141;-87
2022/08/24 00:45:19;;;;;;;4.95;4.30;;;;;;;16.64;100.00;99947.22;4991697;28;20065;-87
2022/08/24 00:47:53;;;;;;;8.45;4.38;;;;;;;16.62;100.00;99951.78;4991780;28;20560;-87
2022/08/24 00:50:41;;;;;;;6.28;4.82;;;;;;;16.59;100.00;99953.47;5008610;28;20245;-87
2022/08/24 00:53:17;;;;;;;5.85;4.55;;;;;;;16.62;100.00;99946.91;4988746;28;20055;-87
2022/08/24 00:55:47;;;;;;;5.18;4.68;;;;;;;16.59;100.00;99963.91;4994417;28;20041;-88
2022/08/24 00:58:19;;;;;;;6.13;4.90;;;;;;;16.62;100.00;99958.13;4990535;28;20042;-87
2022/08/24 01:00:48;;;;;;;6.50;4.50;;;;;;;16.63;100.00;99965.28;4978392;28;20530;-87
2022/08/24 01:03:15;;;;;;;5.72;4.63;;;;;;;16.63;100.00;99956.88;4975504;28;20026;-87
2022/08/24 01:05:40;;;;;;;5.93;4.80;;;;;;;16.64;100.00;99949.25;4973190;28;20082;-88
2022/08/24 01:08:10;;;;;;;5.70;5.07;;;;;;;16.59;100.00;99947.09;5001955;28;20125;-87
2022/08/24 01:10:40;;;;;;;6.18;4.70;;;;;;;16.59;100.00;99939.47;4974721;28;20407;-88
2022/08/24 01:13:07;;;;;;;6.15;4.78;;;;;;;16.60;100.00;99960.63;4971775;28;20054;-88
2022/08/24 01:15:38;;;;;;;5.88;4.85;;;;;;;16.58;100.00;99948.38;4961049;28;20109;-87
2022/08/24 01:20:57;;;;;;;6.30;5.40;;;;;;;16.60;100.00;99943.84;4992538;28;20062;-87
2022/08/24 01:23:41;;;;;;;5.95;4.68;;;;;;;16.62;100.00;99941.31;4972110;28;20045;-87
2022/08/24 01:26:11;;;;;;;5.50;4.78;;;;;;;16.59;100.00;99939.47;4993352;28;20137;-88
2022/08/24 01:28:38;;;;;;;7.40;5.35;;;;;;;16.57;100.00;99933.59;4973584;28;20042;-88
2022/08/24 01:31:04;;;;;;;6.40;4.97;;;;;;;16.59;100.00;99931.09;4969233;28;20042;-87
2022/08/24 01:33:30;;;;;;;6.72;5.53;;;;;;;16.56;100.00;99918.03;4994091;28;20401;-87
2022/08/24 01:36:14;;;;;;;6.90;5.70;;;;;;;16.59;100.00;99930.31;5001166;28;20034;-87
2022/08/24 01:38:40;;;;;;;7.63;5.20;;;;;;;16.57;100.00;99924.44;4972688;28;20038;-87
2022/08/24 01:41:06;;;;;;;6.13;5.45;;;;;;;16.54;100.00;99917.72;4969640;28;20042;-87
2022/08/24 01:43:31;;;;;;;7.63;5.97;;;;;;;16.54;100.00;99926.13;4976358;28;20120;-87
2022/08/24 01:45:58;;;;;;;6.72;5.25;;;;;;;16.53;100.00;99919.00;4984903;28;20038;-88
2022/08/24 01:48:23;;;;;;;7.95;5.90;;;;;;;16.53;100.00;99901.41;4991024;28;20061;-87
2022/08/24 01:50:51;;;;;;;7.60;5.85;;;;;;;16.49;100.00;99910.00;4972143;28;20034;-87
2022/08/24 01:53:20;;;;;;;7.97;5.43;;;;;;;16.51;100.00;99915.88;4993326;28;20038;-87
2022/08/24 01:55:45;;;;;;;6.72;6.03;;;;;;;16.48;100.00;99916.84;4999057;28;20540;-87
2022/08/24 01:58:11;;;;;;;6.68;5.80;;;;;;;16.48;100.00;99916.84;5010114;28;20038;-88
2022/08/24 02:00:40;;;;;;;7.82;6.20;;;;;;;16.46;100.00;99916.53;4974552;28;20623;-88
2022/08/24 02:03:06;;;;;;;6.82;6.13;;;;;;;16.46;100.00;99908.16;4990891;28;20041;-87
2022/08/24 02:05:33;;;;;;;7.50;6.15;;;;;;;16.46;100.00;99910.94;4986657;28;20046;-87
2022/08/24 02:07:59;;;;;;;7.60;6.32;;;;;;;16.46;100.00;99913.75;4982215;28;20045;-87
2022/08/24 02:10:25;;;;;;;8.85;6.20;;;;;;;16.43;100.00;99911.91;5012051;28;20038;-88
2022/08/24 02:12:57;;;;;;;9.52;6.97;;;;;;;16.45;100.00;99917.81;4992422;28;20038;-88
2022/08/24 02:15:38;;;;;;;8.90;6.32;;;;;;;16.43;100.00;99923.09;5011607;28;20456;-87
2022/08/24 02:18:08;;;;;;;9.02;6.32;;;;;;;16.44;100.00;99935.09;5005099;28;20046;-87
2022/08/24 02:20:34;;;;;;;7.15;6.45;;;;;;;16.43;100.00;99939.91;4992854;28;20038;-87
2022/08/24 02:23:00;;;;;;;8.82;6.63;;;;;;;16.40;100.00;99938.06;5008012;28;20490;-88
2022/08/24 02:25:29;;;;;;;7.70;6.38;;;;;;;16.43;100.00;99941.94;4989563;28;20070;-87
2022/08/24 02:28:00;;;;;;;8.45;6.68;;;;;;;16.41;100.00;99934.03;4989912;28;20104;-87
2022/08/24 02:30:27;;;;;;;7.72;6.75;;;;;;;16.42;100.00;99946.75;4987270;28;20068;-88
2022/08/24 02:32:53;;;;;;;7.75;6.90;;;;;;;16.40;100.00;99938.06;4980397;28;20033;-88
2022/08/24 02:35:21;;;;;;;9.10;6.72;;;;;;;16.41;100.00;99942.44;4987957;28;20030;-87
2022/08/24 02:37:47;;;;;;;9.00;7.22;;;;;;;16.38;100.00;99937.75;5002244;28;20025;-88
2022/08/24 02:40:14;;;;;;;8.10;6.90;;;;;;;16.43;100.00;99948.31;4990542;28;20099;-88
2022/08/24 02:42:40;;;;;;;7.80;6.55;;;;;;;16.40;100.00;99946.47;4991576;28;20038;-88
2022/08/24 02:45:07;;;;;;;9.00;7.45;;;;;;;16.40;100.00;99952.06;4988363;28;20038;-88
2022/08/24 02:47:34;;;;;;;9.60;7.22;;;;;;;16.40;100.00;99954.09;5017878;28;20069;-88
2022/08/24 02:50:01;;;;;;;9.30;7.18;;;;;;;16.39;100.00;99950.50;4999917;28;20064;-88
2022/08/24 02:52:26;;;;;;;10.45;7.43;;;;;;;16.41;100.00;99959.22;4994314;28;20472;-88
2022/08/24 02:54:52;;;;;;;9.55;7.57;;;;;;;16.37;100.00;99941.84;4993794;28;20120;-88
2022/08/24 02:57:17;;;;;;;9.07;7.32;;;;;;;16.42;100.00;99946.00;4997508;28;20444;-88
2022/08/24 02:59:43;;;;;;;9.52;7.47;;;;;;;16.43;100.00;99953.91;4988396;28;20134;-88
2022/08/24 03:02:09;;;;;;;9.88;7.80;;;;;;;16.42;100.00;99941.16;5011750;28;20486;-88
2022/08/24 03:04:34;;;;;;;8.90;7.47;;;;;;;16.43;100.00;99945.50;5006945;28;20037;-87
2022/08/24 03:07:02;;;;;;;9.68;8.25;;;;;;;16.44;100.00;99944.25;4994350;28;20390;-88
2022/08/24 03:09:28;;;;;;;9.63;8.35;;;;;;;16.47;100.00;99939.72;4988747;28;20531;-88
2022/08/24 03:11:55;;;;;;;9.52;7.82;;;;;;;16.45;100.00;99939.44;4991412;28;20030;-88
2022/08/24 03:14:21;;;;;;;11.02;8.30;;;;;;;16.45;100.00;99942.25;5013845;28;20512;-88
2022/08/24 03:16:47;;;;;;;10.40;8.48;;;;;;;16.45;100.00;99942.25;5002381;28;20129;-87
2022/08/24 03:19:14;;;;;;;9.30;8.15;;;;;;;16.42;100.00;99938.34;5010928;28;20034;-88
2022/08/24 03:21:42;;;;;;;10.50;8.88;;;;;;;16.46;100.00;99938.94;4992838;28;20497;-88
2022/08/24 03:24:09;;;;;;;13.30;8.38;;;;;;;16.46;100.00;99944.53;5010032;28;20030;-88
2022/08/24 03:26:35;;;;;;;11.77;8.50;;;;;;;16.44;100.00;99941.47;5010900;28;20030;-87
2022/08/24 03:29:00;;;;;;;11.05;8.82;;;;;;;16.48;100.00;99947.66;4994369;28;20050;-88
2022/08/24 03:31:26;;;;;;;11.55;8.45;;;;;;;16.51;100.00;99952.28;4988095;28;20034;-87
2022/08/24 03:33:51;;;;;;;12.90;8.68;;;;;;;16.52;100.00;99953.84;5017130;28;20579;-88
2022/08/24 03:36:17;;;;;;;11.57;8.55;;;;;;;16.56;100.00;99959.25;5015214;28;20077;-88
2022/08/24 03:38:43;;;;;;;9.70;8.55;;;;;;;16.59;100.00;99952.72;4997697;28;20041;-87
2022/08/24 03:41:09;;;;;;;12.38;9.43;;;;;;;16.62;100.00;99958.13;4996079;28;20504;-87
2022/08/24 03:43:47;;;;;;;11.93;8.48;;;;;;;16.69;100.00;99951.38;4998543;28;20074;-87
2022/08/24 03:46:18;;;;;;;11.43;9.40;;;;;;;16.70;100.00;99936.88;5016948;28;20069;-87
2022/08/24 03:48:44;;;;;;;11.55;9.20;;;;;;;16.71;100.00;99941.22;4995315;28;20065;-87
2022/08/24 03:51:12;;;;;;;12.35;9.52;;;;;;;16.72;100.00;99937.19;4991445;28;20505;-87
2022/08/24 03:53:38;;;;;;;12.00;9.65;;;;;;;16.73;100.00;99938.75;4998953;28;20073;-88
2022/08/24 03:56:03;;;;;;;11.48;9.10;;;;;;;16.78;100.00;99940.84;4993423;28;20066;-88
2022/08/24 03:58:29;;;;;;;11.43;9.50;;;;;;;16.79;100.00;99938.81;4996674;28;20049;-88
2022/08/24 04:00:55;;;;;;;12.07;9.95;;;;;;;16.81;100.00;99946.75;5006635;28;20201;-88
2022/08/24 04:03:21;;;;;;;13.35;10.05;;;;;;;16.83;100.00;99944.22;5014202;28;20037;-87
2022/08/24 04:05:46;;;;;;;10.93;9.10;;;;;;;16.83;100.00;99933.81;4997435;28;20480;-88
2022/08/24 04:08:12;;;;;;;11.38;9.43;;;;;;;16.85;100.00;99938.94;5013917;28;20034;-88
2022/08/24 04:10:43;;;;;;;11.88;9.73;;;;;;;16.85;100.00;99941.75;5007444;28;20042;-88
2022/08/24 04:13:09;;;;;;;12.00;9.45;;;;;;;16.84;100.00;99940.19;4988175;28;20040;-88
2022/08/24 04:15:38;;;;;;;12.88;10.63;;;;;;;16.88;100.00;99937.97;5015230;28;20037;-87
2022/08/24 04:18:04;;;;;;;12.48;9.50;;;;;;;16.89;100.00;99942.31;4991661;28;20540;-88
2022/08/24 04:20:30;;;;;;;11.52;9.32;;;;;;;16.89;100.00;99936.72;4994429;28;20030;-87
2022/08/24 04:22:55;;;;;;;11.15;9.23;;;;;;;16.92;100.00;99935.75;4993630;28;20449;-88
2022/08/24 04:25:22;;;;;;;15.35;9.63;;;;;;;16.95;100.00;99937.56;5007056;28;20627;-88
2022/08/24 04:27:49;;;;;;;10.85;9.35;;;;;;;16.95;100.00;99943.19;5004861;28;20041;-88
2022/08/24 04:30:14;;;;;;;12.73;10.43;;;;;;;16.96;100.00;99941.94;5005807;28;20045;-88
2022/08/24 04:33:01;;;;;;;13.73;9.82;;;;;;;16.95;100.00;99929.94;5010977;28;20072;-88
2022/08/24 04:35:26;;;;;;;13.27;10.35;;;;;;;17.00;100.00;99936.91;4991659;28;20042;-88
2022/08/24 04:37:52;;;;;;;11.70;9.50;;;;;;;17.03;100.00;99935.94;5010405;28;20065;-88
2022/08/24 04:40:17;;;;;;;13.88;10.60;;;;;;;17.05;100.00;99933.44;5005121;28;20038;-87
2022/08/24 04:42:45;;;;;;;15.35;10.30;;;;;;;17.08;100.00;99932.44;5018132;28;20077;-87
2022/08/24 04:45:11;;;;;;;12.85;9.40;;;;;;;17.13;100.00;99934.59;5009126;28;20173;-87
2022/08/24 04:47:36;;;;;;;11.77;10.07;;;;;;;17.15;100.00;99946.84;5005874;28;20042;-87
2022/08/24 04:50:03;;;;;;;11.35;9.35;;;;;;;17.19;100.00;99938.22;5013012;28;20092;-88
2022/08/24 04:52:29;;;;;;;11.95;10.15;;;;;;;17.22;100.00;99920.47;4982343;28;20042;-88
2022/08/24 04:54:55;;;;;;;11.57;9.60;;;;;;;17.23;100.00;99922.00;5093523;23;20073;-84
2022/08/24 04:57:22;;;;;;;12.93;9.77;;;;;;;17.27;100.00;99925.38;5008076;28;20103;-84
2022/08/24 04:59:48;;;;;;;11.40;9.48;;;;;;;17.30;100.00;99921.63;4989426;28;20042;-84
2022/08/24 05:02:13;;;;;;;12.40;9.38;;;;;;;17.37;100.00;99929.63;5008072;28;20034;-83
2022/08/24 05:04:39;;;;;;;10.88;9.35;;;;;;;17.40;100.00;99934.25;5009301;28;20497;-84
2022/08/24 05:07:06;;;;;;;12.75;9.93;;;;;;;17.46;100.00;99928.75;5005671;28;20057;-84
2022/08/24 05:09:32;;;;;;;13.35;10.23;;;;;;;17.52;100.00;99933.16;4992528;28;20042;-83
2022/08/24 05:11:58;;;;;;;11.98;9.80;;;;;;;17.59;100.00;99934.84;5002264;28;20510;-84
2022/08/24 05:14:27;;;;;;;10.30;9.10;;;;;;;17.67;100.00;99936.72;5012054;23;20061;-83
2022/08/24 05:16:53;;;;;;;11.20;8.77;;;;;;;17.71;100.00;99940.09;4996650;28;20521;-83
2022/08/24 05:19:19;;;;;;;11.20;9.07;;;;;;;17.77;100.00;99937.38;4999152;28;20034;-83
2022/08/24 05:21:45;;;;;;;11.75;9.35;;;;;;;17.82;100.00;99938.72;4993333;28;20041;-83
2022/08/24 05:24:10;;;;;;;11.13;8.90;;;;;;;17.91;100.00;99933.00;4989545;28;20037;-83
2022/08/24 05:26:36;;;;;;;11.57;8.93;;;;;;;18.03;100.00;99932.66;4988643;28;20034;-83
2022/08/24 05:29:02;;;;;;;10.50;8.85;;;;;;;18.10;100.00;99926.59;4993907;28;20050;-83
2022/08/24 05:31:43;;;;;;;11.20;9.75;;;;;;;18.25;100.00;99937.75;4994539;23;20046;-77
2022/08/24 05:34:09;;;;;;;12.18;9.55;;;;;;;18.40;100.00;99938.44;4960281;28;20039;-77
2022/08/24 05:36:39;;;;;;;10.85;8.55;;;;;;;18.50;100.00;99947.50;4963485;28;20101;-77
2022/08/24 05:39:09;;;;;;;11.70;8.20;;;;;;;18.60;100.00;99946.84;4945506;28;20044;-77
2022/08/24 05:41:41;;;;;;;11.57;8.73;;;;;;;18.79;100.00;99952.19;4956941;28;20043;-77
2022/08/24 05:44:13;;;;;;;11.52;7.95;;;;;;;18.87;100.00;99939.22;4932616;28;20046;-77
2022/08/24 05:46:39;;;;;;;12.25;9.40;;;;;;;18.93;100.00;99951.28;4921489;28;20058;-94
2022/08/24 05:49:06;;;;;;;10.80;8.45;;;;;;;19.03;100.00;99944.22;4959695;28;20035;-93
2022/08/24 05:51:32;;;;;;;10.23;7.82;;;;;;;19.20;100.00;99953.59;4967152;28;20038;-93
2022/08/24 05:54:08;;;;;;;8.82;7.35;;;;;;;19.34;100.00;99955.47;4942123;28;20381;-94
2022/08/24 05:56:50;;;;;;;12.80;7.93;;;;;;;19.51;100.00;99939.53;4937112;29;20050;-95
2022/08/24 05:59:18;;;;;;;10.38;8.38;;;;;;;19.61;100.00;99936.53;4958000;28;20047;-95
2022/08/24 06:01:44;;;;;;;10.43;8.40;;;;;;;19.66;100.00;99949.84;4920591;28;20059;-94
2022/08/24 06:04:11;;;;;;;9.35;8.10;;;;;;;19.67;100.00;99954.22;4940164;28;20039;-94
2022/08/24 06:06:37;;;;;;;8.77;7.57;;;;;;;19.72;100.00;99945.03;4935668;29;20043;-92
2022/08/24 06:09:02;;;;;;;10.05;8.10;;;;;;;19.71;100.00;99954.75;4953152;28;20489;-92
2022/08/24 06:11:33;;;;;;;11.60;8.27;;;;;;;19.68;100.00;99953.72;4936356;29;20039;-93
2022/08/24 06:14:09;;;;;;;9.82;8.30;;;;;;;19.72;100.00;99959.13;4926590;29;20471;-93
2022/08/24 06:16:42;;;;;;;10.43;8.23;;;;;;;19.72;100.00;99959.91;4959996;28;20050;-96
2022/08/24 06:19:12;;;;;;;10.55;8.77;;;;;;;19.66;100.00;99956.25;4951920;28;20051;-96
2022/08/24 06:21:38;;;;;;;10.50;8.52;;;;;;;19.70;100.00;99970.09;4930246;29;20056;-93
2022/08/24 06:24:04;;;;;;;8.88;7.75;;;;;;;19.76;100.00;99960.44;4956509;28;20512;-94
2022/08/24 06:29:20;;;;;;;10.30;8.50;;;;;;;19.90;100.00;99953.06;4942655;28;20043;-93
2022/08/24 06:31:54;;;;;;;;;;;;;;;20.02;100.00;99960.31;4960538;28;20046;-93
2022/08/24 06:34:22;;;;;;;10.10;8.63;;;;;;;19.99;100.00;99950.06;4963245;28;19919;-93
2022/08/24 06:36:48;;;;;;;10.38;8.85;;;;;;;19.94;100.00;99960.00;4951576;28;20034;-93
2022/08/24 06:39:14;;;;;;;10.48;8.43;;;;;;;19.85;100.00;99951.03;4938906;29;20046;-94
2022/08/24 06:41:43;;;;;;;10.65;8.23;;;;;;;19.90;100.00;99953.84;4956322;28;20055;-92
2022/08/24 06:44:11;;;;;;;9.88;8.30;;;;;;;20.00;100.00;99957.25;4947712;28;20038;-77
2022/08/24 06:46:48;;;;;;;12.23;8.85;;;;;;;20.03;100.00;99959.03;4944576;28;20501;-76
2022/08/24 06:49:14;;;;;;;10.90;8.63;;;;;;;20.14;100.00;99953.47;4966358;28;20043;-76
2022/08/24 06:51:39;;;;;;;11.95;8.82;;;;;;;20.36;100.00;99955.63;4966300;28;20058;-75
2022/08/24 06:54:08;;;;;;;12.00;9.02;;;;;;;20.48;100.00;99952.34;4948944;28;20081;-76
2022/08/24 06:56:36;;;;;;;9.93;8.38;;;;;;;20.53;100.00;99953.66;4949414;28;20062;-76
2022/08/24 06:59:03;;;;;;;11.73;8.30;;;;;;;20.63;100.00;99957.78;4949163;28;20127;-76
2022/08/24 07:01:29;;;;;;;9.77;8.02;;;;;;;20.72;100.00;99959.59;4955544;28;20047;-76
2022/08/24 07:03:55;;;;;;;10.18;8.23;;;;;;;20.68;100.00;99959.06;4939175;28;20070;-76
2022/08/24 07:06:39;;;;;;;10.85;8.70;;;;;;;20.68;100.00;99947.78;4952477;28;20385;-76
2022/08/24 07:09:05;;;;;;;8.40;7.60;;;;;;;20.79;100.00;99953.44;4953936;28;20042;-76
2022/08/24 07:11:32;;;;;;;9.63;8.10;;;;;;;20.90;100.00;99954.25;4953723;29;20035;-76
2022/08/24 07:13:59;;;;;;;9.60;7.60;;;;;;;21.14;100.00;99959.44;4962826;28;20047;-76
2022/08/24 07:16:25;;;;;;;9.32;8.00;;;;;;;21.22;100.00;99968.94;4953071;29;20039;-75
2022/08/24 07:18:54;;;;;;;9.20;7.78;;;;;;;21.29;100.00;99962.78;4946446;29;20047;-75
2022/08/24 07:21:20;;;;;;;9.32;7.75;;;;;;;21.35;100.00;99965.59;4961874;28;20040;-76
2022/08/24 07:23:49;;;;;;;10.68;8.50;;;;;;;21.12;100.00;99961.22;4956953;28;20123;-94
2022/08/24 07:26:18;;;;;;;8.65;7.57;;;;;;;21.12;100.00;99970.44;4965765;28;20049;-92
2022/08/24 07:28:44;;;;;;;8.55;7.47;;;;;;;21.43;100.00;99977.16;4961420;28;20039;-91
2022/08/24 07:31:12;;;;;;;9.68;7.57;;;;;;;21.59;100.00;99974.31;4974680;28;20035;-92
2022/08/24 07:33:45;;;;;;;9.00;7.55;;;;;;;21.64;100.00;99962.22;4955138;28;20038;-93
2022/08/24 07:36:13;;;;;;;10.30;8.13;;;;;;;21.58;100.00;99972.00;4970120;28;20038;-92
2022/08/24 07:38:39;;;;;;;9.38;7.57;;;;;;;21.71;100.00;99970.19;4939620;28;20461;-92
2022/08/24 07:41:06;;;;;;;7.53;6.72;;;;;;;21.88;100.00;99970.13;4956552;28;20043;-91
2022/08/24 07:43:32;;;;;;;8.77;7.10;;;;;;;21.99;100.00;99978.63;4956720;28;20039;-93
2022/08/24 07:45:58;;;;;;;10.15;7.13;;;;;;;22.07;100.00;99968.34;4965752;28;20079;-93
2022/08/24 07:48:24;;;;;;;8.98;7.40;;;;;;;22.45;100.00;99974.34;4979794;28;20061;-93
2022/08/24 07:50:50;;;;;;;8.15;6.80;;;;;;;22.60;100.00;99974.81;4968917;28;20493;-93
2022/08/24 07:53:16;;;;;;;7.88;6.70;;;;;;;22.50;100.00;99982.03;4977605;28;20050;-93
2022/08/24 07:55:42;;;;;;;8.63;7.00;;;;;;;22.34;100.00;99975.19;4967196;28;20061;-93
2022/08/24 07:58:08;;;;;;;7.68;6.75;;;;;;;22.19;100.00;99975.50;4961287;28;20040;-93
2022/08/24 08:00:35;;;;;;;9.38;6.60;;;;;;;22.17;100.00;99978.06;4968444;28;20039;-95
2022/08/24 08:03:03;;;;;;;9.98;6.90;;;;;;;22.29;100.00;99988.03;4967205;28;20038;-95
2022/08/24 08:05:31;;;;;;;8.88;7.40;;;;;;;22.09;100.00;99987.59;4962828;28;20081;-94
2022/08/24 08:07:56;;;;;;;8.27;7.20;;;;;;;22.19;100.00;99986.81;4953059;28;20043;-93
2022/08/24 08:10:22;;;;;;;8.25;6.82;;;;;;;22.15;100.00;99980.66;4954732;28;20432;-92
2022/08/24 08:12:49;;;;;;;8.18;6.88;;;;;;;22.03;100.00;99993.25;4952040;28;20106;-93
2022/08/24 08:15:15;;;;;;;9.13;7.25;;;;;;;22.07;100.00;100001.47;4957340;28;20576;-94
2022/08/24 08:17:59;;;;;;;8.52;7.20;;;;;;;21.93;100.00;99992.00;4949584;29;20047;-93
2022/08/24 08:20:25;;;;;;;8.80;7.60;;;;;;;21.87;100.00;100005.34;4960195;28;20050;-94
2022/08/24 08:25:53;;;;;;;9.25;7.32;;;;;;;22.18;100.00;100005.03;4954651;29;20465;-93
2022/08/24 08:28:31;;;;;;;9.77;7.47;;;;;;;22.37;99.49;100008.03;4946805;28;20502;-93
2022/08/24 08:31:01;;;;;;;10.48;8.00;;;;;;;22.67;98.45;100014.59;4936438;29;20090;-93
2022/08/24 08:33:28;;;;;;;10.15;7.78;;;;;;;22.69;97.63;100012.03;4938606;28;20039;-93
2022/08/24 08:36:11;;;;;;;8.85;7.95;;;;;;;22.99;96.73;100006.50;4941580;29;20075;-95
2022/08/24 08:38:42;;;;;;;8.63;7.63;;;;;;;23.28;92.77;100001.41;4951566;29;20051;-94
2022/08/24 08:41:34;;;;;;;9.52;7.93;;;;;;;23.58;93.33;99999.38;4936794;29;20043;-92
2022/08/24 08:44:16;;;;;;;8.30;7.50;;;;;;;24.02;90.47;100009.53;4921112;29;20046;-93
2022/08/24 08:47:11;;;;;;;8.23;7.35;;;;;;;24.20;90.90;100019.41;4953609;29;20046;-93
2022/08/24 08:50:24;;;;;;;9.60;8.02;;;;;;;24.51;88.69;100004.63;4936842;29;20138;-92
2022/08/24 08:53:06;;;;;;;8.57;7.68;;;;;;;24.24;87.40;100015.00;4931393;29;20098;-93
2022/08/24 08:55:40;;;;;;;9.88;8.70;;;;;;;24.05;88.69;100011.31;4953857;29;20051;-92
2022/08/24 08:58:35;;;;;;;10.35;8.82;;;;;;;24.35;86.78;100019.75;4937220;29;20067;-92
2022/08/24 09:01:08;;;;;;;10.25;8.32;;;;;;;24.42;86.80;100019.19;4952028;29;20047;-91
2022/08/24 09:04:14;;;;;;;12.82;8.57;;;;;;;24.51;85.73;100013.13;4935888;29;20134;-93
2022/08/24 09:07:07;;;;;;;9.65;8.23;;;;;;;24.63;87.16;100006.78;4953185;28;20043;-93
2022/08/24 09:10:04;;;;;;;9.00;8.10;;;;;;;24.63;85.99;100006.78;4938410;28;20048;-94
2022/08/24 09:12:54;;;;;;;10.02;8.50;;;;;;;24.34;86.30;100001.22;4939812;29;20181;-92
2022/08/24 09:15:45;;;;;;;10.13;8.93;;;;;;;24.17;88.25;100012.75;4951601;28;20500;-91
2022/08/24 09:18:31;;;;;;;10.15;9.15;;;;;;;24.07;89.31;100020.03;4959653;28;20058;-76
2022/08/24 09:21:05;;;;;;;10.77;9.07;;;;;;;23.83;89.88;100031.34;4944755;28;20124;-76
2022/08/24 09:23:34;;;;;;;10.68;9.60;;;;;;;23.53;91.97;100025.69;4951692;28;20055;-76
2022/08/24 09:26:31;;;;;;;10.73;9.25;;;;;;;23.68;93.02;100028.91;4947694;28;20130;-76
2022/08/24 09:29:15;;;;;;;10.20;9.20;;;;;;;23.76;92.36;100024.22;4944560;28;20047;-76
2022/08/24 09:32:10;;;;;;;11.82;9.48;;;;;;;23.77;92.51;100028.59;4961455;28;20452;-76
2022/08/24 09:34:52;;;;;;;10.98;9.85;;;;;;;23.68;92.68;100021.19;4951500;28;20051;-76
2022/08/24 09:37:32;;;;;;;12.50;9.13;;;;;;;23.69;93.26;100016.31;4960272;28;20070;-76
2022/08/24 09:40:38;;;;;;;11.60;10.02;;;;;;;23.55;94.03;100028.75;4954916;28;20106;-77
2022/08/24 09:43:48;;;;;;;11.60;10.02;;;;;;;23.48;94.08;100029.34;4915274;28;20428;-77
2022/08/24 09:46:25;;;;;;;10.65;9.55;;;;;;;23.54;92.78;100019.50;4958422;28;20050;-75
2022/08/24 09:49:18;;;;;;;10.80;9.70;;;;;;;23.61;92.57;100023.84;4946203;28;20045;-76
2022/08/24 09:52:03;;;;;;;;;;;;;;;23.62;94.17;100025.34;4960430;28;20408;-76
2022/08/24 09:54:47;;;;;;;10.80;9.65;;;;;;;23.58;93.05;100022.81;4970036;28;19925;-76
2022/08/24 09:57:51;;;;;;;10.65;9.43;;;;;;;23.48;93.14;100013.13;4945396;28;20064;-76
2022/08/24 10:00:26;;;;;;;11.52;10.05;;;;;;;23.42;92.53;100003.09;4942275;28;20517;-76
2022/08/24 10:02:55;;;;;;;10.30;9.23;;;;;;;23.38;93.13;100002.59;4944638;28;20079;-76
2022/08/24 10:05:41;;;;;;;10.43;9.32;;;;;;;23.51;94.41;99999.97;4966412;28;20027;-76
2022/08/24 10:08:32;;;;;;;11.63;9.30;;;;;;;23.66;93.14;100003.94;4951864;28;20057;-77
2022/08/24 10:10:58;;;;;;;10.13;9.13;;;;;;;23.76;93.88;99998.72;4961240;28;20122;-76
2022/08/24 10:13:35;;;;;;;10.48;8.48;;;;;;;23.96;93.75;100001.09;4964310;28;20055;-86
2022/08/24 10:16:20;;;;;;;10.20;9.20;;;;;;;24.11;93.15;99992.94;4960654;28;20046;-89
2022/08/24 10:19:22;;;;;;;10.43;9.18;;;;;;;24.30;90.52;99986.59;4967926;28;20054;-89
2022/08/24 10:22:09;;;;;;;11.77;9.18;;;;;;;24.25;90.64;99991.03;4960533;28;20184;-91
2022/08/24 10:25:04;;;;;;;10.30;9.20;;;;;;;24.82;89.29;99995.44;4961436;28;20094;-90
2022/08/24 10:27:59;;;;;;;10.35;9.25;;;;;;;25.35;88.30;99995.72;4971824;28;20047;-91
2022/08/24 10:30:46;;;;;;;11.77;9.82;;;;;;;25.29;86.35;99986.53;4943933;28;20039;-91
2022/08/24 10:33:24;;;;;;;10.85;9.73;;;;;;;25.20;85.62;99996.19;4949998;29;20036;-92
2022/08/24 10:36:16;;;;;;;11.98;8.85;;;;;;;25.56;84.28;99993.84;4946734;29;20039;-92
2022/08/24 10:41:59;;;;;;;11.40;9.38;;;;;;;25.95;83.71;99991.09;4938567;29;20532;-92
2022/08/24 10:44:57;;;;;;;10.95;9.35;;;;;;;25.48;83.38;99988.00;4943588;28;20059;-92
2022/08/24 10:47:29;;;;;;;9.93;8.93;;;;;;;25.46;86.21;99989.84;4939227;28;20386;-91
2022/08/24 10:50:23;;;;;;;10.18;9.18;;;;;;;25.66;85.49;99991.34;4937481;29;20052;-90
2022/08/24 10:53:08;;;;;;;;;;;;;;;26.15;83.48;99986.84;4935514;29;20055;-77
2022/08/24 10:55:34;;;;;;;10.80;9.18;;;;;;;26.61;80.38;99988.22;4935918;28;20401;-77
2022/08/24 10:58:12;;;;;;;10.18;9.05;;;;;;;26.42;79.52;99988.38;4938862;28;20048;-77
2022/08/24 11:00:39;;;;;;;10.68;8.98;;;;;;;26.36;79.25;99986.97;4937472;29;20039;-77
2022/08/24 11:03:12;;;;;;;10.40;9.05;;;;;;;26.14;80.60;99984.53;4944181;28;20090;-77
2022/08/24 11:05:50;;;;;;;9.70;8.43;;;;;;;25.80;82.57;99990.09;4958690;28;20047;-77
2022/08/24 11:08:21;;;;;;;12.60;10.20;;;;;;;25.31;83.63;100001.72;4934430;29;20043;-77
2022/08/24 11:11:05;;;;;;;10.95;9.20;;;;;;;25.35;84.73;99996.50;4934624;29;20391;-78
2022/08/24 11:13:32;;;;;;;10.30;8.90;;;;;;;25.26;84.92;99998.97;4936402;29;20078;-77
2022/08/24 11:16:00;;;;;;;10.23;9.23;;;;;;;25.36;84.65;99997.25;4935068;29;20048;-77
2022/08/24 11:18:51;;;;;;;10.70;9.07;;;;;;;25.71;83.50;99994.09;4928838;29;20056;-77
2022/08/24 11:21:33;;;;;;;9.80;8.73;;;;;;;26.10;83.46;99996.22;4936268;28;20143;-77
2022/08/24 11:24:05;;;;;;;9.77;8.77;;;;;;;26.06;80.45;99995.00;4942852;28;20048;-77
2022/08/24 11:29:48;;;;;;;9.63;8.63;;;;;;;26.20;80.44;99999.44;4935707;29;20054;-77
2022/08/24 11:32:31;;;;;;;12.65;9.20;;;;;;;26.71;80.78;100000.69;4939307;28;20398;-78
2022/08/24 11:35:35;;;;;;;11.57;10.18;;;;;;;26.85;78.35;100002.22;4952206;28;20050;-77
2022/08/24 11:38:14;;;;;;;12.18;9.38;;;;;;;27.04;76.76;99996.38;4946952;28;20098;-77
2022/08/24 11:40:49;;;;;;;12.20;9.20;;;;;;;27.24;77.97;100001.31;4952484;28;20051;-79
2022/08/24 11:43:14;;;;;;;11.65;9.55;;;;;;;27.42;75.05;99991.03;4945552;29;20047;-79
2022/08/24 11:45:58;;;;;;;10.82;9.52;;;;;;;27.42;76.56;99991.03;4960843;28;20535;-76
2022/08/24 11:48:53;;;;;;;9.85;8.85;;;;;;;27.66;74.43;99990.72;4955936;28;20161;-77
2022/08/24 11:51:30;;;;;;;10.50;9.10;;;;;;;27.79;74.24;100001.28;4966455;28;20409;-78
2022/08/24 11:54:23;;;;;;;10.38;9.27;;;;;;;27.76;73.17;99991.00;4965527;28;20039;-91
2022/08/24 11:57:06;;;;;;;10.25;9.18;;;;;;;27.72;73.19;99999.91;4972086;28;20506;-89
2022/08/24 11:59:34;;;;;;;10.38;9.27;;;;;;;27.66;75.16;99992.81;4953407;28;20437;-94